createdAt,value
2023-02-12T00:01:38.422Z,3.25
2023-02-12T00:05:42.109Z,3.21
2023-02-12T00:09:46.272Z,3.24
2023-02-12T00:13:49.077Z,3.21
2023-02-12T00:17:51.686Z,3.20
2023-02-12T00:21:54.319Z,3.21
2023-02-12T00:25:58.366Z,3.24
2023-02-12T00:30:01.028Z,3.20
2023-02-12T00:34:03.688Z,3.15
2023-02-12T00:38:06.349Z,3.08
2023-02-12T00:42:10.322Z,3.08
2023-02-12T00:46:13.034Z,3.02
2023-02-12T00:50:15.786Z,2.99
2023-02-12T00:54:18.605Z,2.94
2023-02-12T00:58:22.866Z,2.94
2023-02-12T01:02:25.717Z,2.91
2023-02-12T01:06:28.408Z,2.90
2023-02-12T01:10:31.268Z,2.87
2023-02-12T01:14:35.569Z,2.83
2023-02-12T01:18:39.058Z,2.90
2023-02-12T01:22:41.814Z,2.91
2023-02-12T01:26:44.433Z,2.89
2023-02-12T01:30:48.520Z,2.89
2023-02-12T01:34:51.466Z,2.91
2023-02-12T01:38:54.121Z,2.93
2023-02-12T01:42:56.745Z,2.85
2023-02-12T01:47:02.321Z,2.86
2023-02-12T01:51:06.000Z,2.81
2023-02-12T01:55:11.144Z,2.81
2023-02-12T01:59:14.461Z,2.78
2023-02-12T02:03:18.513Z,2.81
2023-02-12T02:07:21.164Z,2.79
2023-02-12T02:11:42.050Z,2.74
2023-02-12T02:15:50.419Z,2.68
2023-02-12T02:20:34.411Z,2.63
2023-02-12T02:25:00.793Z,2.63
2023-02-12T02:29:21.546Z,2.63
2023-02-12T02:33:38.463Z,2.63
2023-02-12T02:37:45.127Z,2.62
2023-02-12T02:41:56.495Z,2.54
2023-02-12T02:46:04.368Z,2.53
2023-02-12T02:50:12.713Z,2.49
2023-02-12T02:54:20.872Z,2.51
2023-02-12T02:58:27.587Z,2.51
2023-02-12T03:02:33.646Z,2.48
2023-02-12T03:06:45.152Z,2.46
2023-02-12T03:10:50.742Z,2.39
2023-02-12T03:14:58.319Z,2.37
2023-02-12T03:19:07.069Z,2.32
2023-02-12T03:23:13.965Z,2.32
2023-02-12T03:27:19.035Z,2.22
2023-02-12T03:31:31.775Z,2.20
2023-02-12T03:35:42.849Z,2.18
2023-02-12T03:39:54.297Z,2.10
2023-02-12T03:44:05.455Z,2.11
2023-02-12T03:48:14.763Z,2.11
2023-02-12T03:52:17.379Z,2.12
2023-02-12T03:56:26.516Z,2.09
2023-02-12T04:00:29.325Z,2.00
2023-02-12T04:04:32.747Z,1.97
2023-02-12T04:08:35.384Z,1.97
2023-02-12T04:12:47.843Z,1.89
2023-02-12T04:16:55.628Z,1.80
2023-02-12T04:21:08.006Z,1.83
2023-02-12T04:25:21.612Z,1.76
2023-02-12T04:29:33.226Z,1.70
2023-02-12T04:33:41.076Z,1.69
2023-02-12T04:37:46.439Z,1.71
2023-02-12T04:41:49.292Z,1.66
2023-02-12T04:45:53.575Z,1.66
2023-02-12T04:49:56.389Z,1.67
2023-02-12T04:53:58.944Z,1.67
2023-02-12T04:58:01.651Z,1.61
2023-02-12T05:02:05.639Z,1.60
2023-02-12T05:06:10.029Z,1.57
2023-02-12T05:10:12.782Z,1.53
2023-02-12T05:14:15.428Z,1.52
2023-02-12T05:18:19.337Z,1.52
2023-02-12T05:22:22.080Z,1.53
2023-02-12T05:26:24.751Z,1.53
2023-02-12T05:30:27.323Z,1.55
2023-02-12T05:34:31.381Z,1.54
2023-02-12T05:38:34.030Z,1.55
2023-02-12T05:42:36.628Z,1.54
2023-02-12T05:46:40.041Z,1.52
2023-02-12T05:50:44.007Z,1.52
2023-02-12T05:54:46.589Z,1.44
2023-02-12T05:58:53.027Z,1.44
2023-02-12T06:02:55.677Z,1.46
2023-02-12T06:07:01.733Z,1.51
2023-02-12T06:11:06.129Z,1.57
2023-02-12T06:15:09.557Z,1.53
2023-02-12T06:19:12.249Z,1.54
2023-02-12T06:23:16.206Z,1.61
2023-02-12T06:27:18.878Z,1.64
2023-02-12T06:31:24.512Z,1.59
2023-02-12T06:35:27.198Z,1.60
2023-02-12T06:39:31.138Z,1.55
2023-02-12T06:43:33.728Z,1.50
2023-02-12T06:47:36.337Z,2.17
2023-02-12T06:51:41.225Z,2.63
2023-02-12T06:55:45.172Z,3.06
2023-02-12T06:59:47.805Z,2.35
2023-02-12T07:03:52.038Z,2.04
2023-02-12T07:07:54.695Z,1.94
2023-02-12T07:11:59.104Z,1.86
2023-02-12T07:16:04.814Z,1.82
2023-02-12T07:20:08.916Z,1.84
2023-02-12T07:24:12.995Z,1.83
2023-02-12T07:28:17.032Z,1.88
2023-02-12T07:32:19.666Z,1.88
2023-02-12T07:36:22.333Z,1.80
2023-02-12T07:40:24.908Z,1.70
2023-02-12T07:44:29.328Z,1.69
2023-02-12T07:48:31.915Z,2.15
2023-02-12T07:52:34.558Z,2.61
2023-02-12T07:56:39.059Z,2.30
2023-02-12T08:00:42.964Z,2.14
2023-02-12T08:04:45.576Z,2.61
2023-02-12T08:08:48.537Z,2.61
2023-02-12T08:12:51.145Z,2.38
2023-02-12T08:16:55.208Z,2.33
2023-02-12T08:21:02.944Z,2.24
2023-02-12T08:25:05.924Z,2.25
2023-02-12T08:29:10.257Z,2.37
2023-02-12T08:33:14.153Z,2.38
2023-02-12T08:37:16.751Z,2.40
2023-02-12T08:41:21.740Z,2.39
2023-02-12T08:45:24.385Z,2.43
2023-02-12T08:49:30.635Z,2.48
2023-02-12T08:53:33.400Z,2.57
2023-02-12T08:57:36.079Z,2.69
2023-02-12T09:01:41.677Z,2.64
2023-02-12T09:05:45.724Z,2.64
2023-02-12T09:09:48.407Z,2.68
2023-02-12T09:13:51.446Z,2.81
2023-02-12T09:17:54.123Z,2.92
2023-02-12T09:21:58.309Z,2.99
2023-02-12T09:26:01.184Z,3.16
2023-02-12T09:30:03.970Z,3.21
2023-02-12T09:34:07.858Z,3.30
2023-02-12T09:38:11.845Z,3.38
2023-02-12T09:42:38.956Z,3.46
2023-02-12T09:46:48.817Z,3.57
2023-02-12T09:50:54.895Z,3.76
2023-02-12T09:54:59.948Z,3.85
2023-02-12T09:59:06.655Z,3.91
2023-02-12T10:03:13.628Z,4.05
2023-02-12T10:07:30.418Z,4.18
2023-02-12T10:11:56.443Z,4.31
2023-02-12T10:16:11.032Z,4.27
2023-02-12T10:20:29.784Z,4.22
2023-02-12T10:24:57.955Z,4.31
2023-02-12T10:29:12.180Z,4.46
2023-02-12T10:33:18.594Z,4.54
2023-02-12T10:37:29.377Z,4.63
2023-02-12T10:41:34.148Z,4.76
2023-02-12T10:45:40.840Z,4.94
2023-02-12T10:49:43.510Z,5.05
2023-02-12T10:53:48.437Z,5.07
2023-02-12T10:57:51.300Z,5.15
2023-02-12T11:01:55.270Z,5.30
2023-02-12T11:05:58.167Z,5.40
2023-02-12T11:10:01.014Z,5.57
2023-02-12T11:14:07.048Z,5.67
2023-02-12T11:18:23.023Z,5.66
2023-02-12T11:22:25.680Z,5.86
2023-02-12T11:26:30.025Z,6.01
2023-02-12T11:30:33.520Z,6.03
2023-02-12T11:34:37.649Z,6.04
2023-02-12T11:38:48.852Z,6.02
2023-02-12T11:42:53.619Z,5.99
2023-02-12T11:46:58.269Z,6.01
2023-02-12T11:51:05.120Z,6.00
2023-02-12T11:55:19.255Z,6.04
2023-02-12T11:59:37.482Z,6.13
2023-02-12T12:03:46.686Z,6.28
2023-02-12T12:07:56.635Z,6.53
2023-02-12T12:12:05.796Z,6.70
2023-02-12T12:16:31.771Z,6.83
2023-02-12T12:20:42.311Z,6.93
2023-02-12T12:24:54.028Z,6.93
2023-02-12T12:29:06.158Z,6.93
2023-02-12T12:33:17.252Z,6.88
2023-02-12T12:37:30.140Z,6.99
2023-02-12T12:41:48.379Z,7.20
2023-02-12T12:46:10.543Z,7.39
2023-02-12T12:50:35.557Z,7.50
2023-02-12T12:54:46.294Z,7.53
2023-02-12T12:59:10.788Z,7.68
2023-02-12T13:03:37.672Z,7.74
2023-02-12T13:07:53.981Z,7.77
2023-02-12T13:12:13.378Z,7.88
2023-02-12T13:16:23.258Z,7.89
2023-02-12T13:20:35.492Z,8.26
2023-02-12T13:24:46.411Z,9.80
2023-02-12T13:28:53.660Z,10.45
2023-02-12T13:33:06.608Z,11.01
2023-02-12T13:37:17.226Z,11.29
2023-02-12T13:41:21.657Z,11.38
2023-02-12T13:45:37.238Z,11.62
2023-02-12T13:49:49.571Z,11.88
2023-02-12T13:54:03.585Z,12.01
2023-02-12T13:58:40.171Z,11.22
2023-02-12T14:02:45.964Z,10.34
2023-02-12T14:07:01.395Z,10.04
2023-02-12T14:11:08.239Z,10.98
2023-02-12T14:15:22.140Z,11.58
2023-02-12T14:19:55.029Z,11.84
2023-02-12T14:24:52.108Z,11.91
2023-02-12T14:28:58.243Z,11.33
2023-02-12T14:33:25.198Z,10.79
2023-02-12T14:37:39.881Z,10.72
2023-02-12T14:41:43.846Z,10.54
2023-02-12T14:45:46.470Z,10.98
2023-02-12T14:49:51.653Z,11.06
2023-02-12T14:53:57.183Z,10.64
2023-02-12T14:58:05.921Z,10.72
2023-02-12T15:02:14.945Z,10.80
2023-02-12T15:06:19.546Z,11.05
2023-02-12T15:10:25.641Z,11.32
2023-02-12T15:14:31.906Z,11.19
2023-02-12T15:18:48.887Z,10.84
2023-02-12T15:22:51.714Z,10.83
2023-02-12T15:26:56.997Z,10.72
2023-02-12T15:31:02.193Z,10.66
2023-02-12T15:35:05.390Z,10.57
2023-02-12T15:39:10.131Z,10.54
2023-02-12T15:43:19.268Z,10.35
2023-02-12T15:47:26.174Z,9.83
2023-02-12T15:51:34.806Z,9.38
2023-02-12T15:55:41.088Z,8.84
2023-02-12T15:59:43.818Z,8.56
2023-02-12T16:03:50.995Z,8.55
2023-02-12T16:07:54.209Z,8.33
2023-02-12T16:11:59.204Z,8.13
2023-02-12T16:16:08.533Z,8.04
2023-02-12T16:20:24.805Z,7.92
2023-02-12T16:24:33.222Z,7.69
2023-02-12T16:28:35.930Z,7.33
2023-02-12T16:32:40.636Z,7.00
2023-02-12T16:36:48.225Z,6.83
2023-02-12T16:41:16.824Z,7.05
2023-02-12T16:45:44.077Z,7.30
2023-02-12T16:49:55.238Z,6.84
2023-02-12T16:54:00.622Z,6.09
2023-02-12T16:58:03.560Z,5.62
2023-02-12T17:02:12.630Z,5.35
2023-02-12T17:06:15.602Z,5.20
2023-02-12T17:10:20.000Z,5.01
2023-02-12T17:14:22.636Z,4.55
2023-02-12T17:18:26.056Z,4.33
2023-02-12T17:22:28.718Z,4.18
2023-02-12T17:26:32.739Z,3.99
2023-02-12T17:30:37.321Z,4.01
2023-02-12T17:34:48.693Z,4.08
2023-02-12T17:38:52.177Z,4.10
2023-02-12T17:42:56.185Z,3.96
2023-02-12T17:46:58.992Z,3.71
2023-02-12T17:51:01.778Z,3.52
2023-02-12T17:55:05.488Z,3.41
2023-02-12T17:59:09.388Z,3.55
2023-02-12T18:03:12.379Z,3.52
2023-02-12T18:07:15.087Z,3.23
2023-02-12T18:11:18.968Z,2.89
2023-02-12T18:15:22.936Z,2.79
2023-02-12T18:19:26.213Z,2.73
2023-02-12T18:23:28.763Z,2.79
2023-02-12T18:27:31.390Z,2.76
2023-02-12T18:31:35.983Z,2.81
2023-02-12T18:35:41.623Z,2.76
2023-02-12T18:39:44.255Z,2.58
2023-02-12T18:43:47.221Z,2.26
2023-02-12T18:47:51.125Z,2.05
2023-02-12T18:51:53.866Z,1.95
2023-02-12T18:55:56.532Z,1.92
2023-02-12T18:59:59.133Z,1.97
2023-02-12T19:04:05.150Z,1.94
2023-02-12T19:08:07.942Z,1.86
2023-02-12T19:12:10.847Z,1.83
2023-02-12T19:16:17.352Z,1.85
2023-02-12T19:20:21.619Z,1.71
2023-02-12T19:24:24.248Z,1.70
2023-02-12T19:28:26.881Z,1.63
2023-02-12T19:32:29.693Z,1.62
2023-02-12T19:36:35.474Z,1.58
2023-02-12T19:40:38.068Z,1.59
2023-02-12T19:44:40.757Z,1.64
2023-02-12T19:48:44.173Z,1.34
2023-02-12T19:52:48.458Z,0.99
2023-02-12T19:56:52.826Z,0.87
2023-02-12T20:00:55.670Z,0.90
2023-02-12T20:04:58.710Z,0.96
2023-02-12T20:09:02.912Z,0.94
2023-02-12T20:13:05.601Z,0.94
2023-02-12T20:17:08.406Z,0.81
2023-02-12T20:21:14.060Z,0.73
2023-02-12T20:25:18.246Z,0.75
2023-02-12T20:29:21.527Z,0.66
2023-02-12T20:33:24.324Z,0.57
2023-02-12T20:37:27.025Z,0.58
2023-02-12T20:41:31.022Z,0.56
2023-02-12T20:45:35.680Z,0.44
2023-02-12T20:49:38.492Z,0.37
2023-02-12T20:53:42.173Z,0.30
2023-02-12T20:57:46.191Z,0.32
2023-02-12T21:01:48.909Z,0.26
2023-02-12T21:05:51.580Z,0.24
2023-02-12T21:09:54.399Z,0.26
2023-02-12T21:14:20.874Z,0.26
2023-02-12T21:18:25.561Z,0.30
2023-02-12T21:22:28.281Z,0.28
2023-02-12T21:26:33.132Z,0.26
2023-02-12T21:30:37.102Z,0.31
2023-02-12T21:34:39.865Z,0.34
2023-02-12T21:38:44.295Z,0.28
2023-02-12T21:42:46.904Z,0.17
2023-02-12T21:46:51.157Z,0.17
2023-02-12T21:50:53.825Z,0.17
2023-02-12T21:54:57.253Z,0.15
2023-02-12T21:59:00.523Z,0.11
2023-02-12T22:03:04.639Z,0.10
2023-02-12T22:07:08.196Z,-0.07
2023-02-12T22:11:12.758Z,-0.10
2023-02-12T22:15:15.644Z,-0.14
2023-02-12T22:19:19.790Z,-0.31
2023-02-12T22:23:22.434Z,-0.28
2023-02-12T22:27:25.165Z,-0.24
2023-02-12T22:31:31.198Z,-0.12
2023-02-12T22:35:35.318Z,-0.10
2023-02-12T22:39:37.902Z,-0.09
2023-02-12T22:43:41.581Z,-0.11
2023-02-12T22:47:44.179Z,-0.15
2023-02-12T22:51:48.142Z,-0.14
2023-02-12T22:55:50.908Z,-0.17
2023-02-12T22:59:53.540Z,-0.23
2023-02-12T23:03:56.201Z,-0.25
2023-02-12T23:08:00.225Z,-0.33
2023-02-12T23:12:07.478Z,-0.31
2023-02-12T23:16:10.119Z,-0.29
2023-02-12T23:20:13.964Z,-0.33
2023-02-12T23:24:17.917Z,-0.37
2023-02-12T23:28:20.488Z,-0.42
2023-02-12T23:32:23.276Z,-0.43
2023-02-12T23:36:26.008Z,-0.45
2023-02-12T23:40:30.022Z,-0.38
2023-02-12T23:44:32.832Z,-0.38
2023-02-12T23:48:35.523Z,-0.38
2023-02-12T23:52:38.092Z,-0.38
2023-02-12T23:56:42.189Z,-0.38
